N689ME KDSM-KFOE
Flight info
| Callsign | N689ME |
|---|---|
| Flight time | 0h 59m |
| Altitude | 8000 |
| Route | KDSM KFOE |
| Aircraft | TNAV/L-VD/A |
Departure
| Time | 2026-04-27 03:27 |
|---|---|
| Airport | Des Moines International Airport (KDSM) |
Arrival
| Time | 2026-04-27 04:27 |
|---|---|
| Airport | Topeka Regional Airport (KFOE) |
| Time | Latitude | Longitude | Altitude | Speed | Heading |
|---|---|---|---|---|---|
| 2026-04-27 03:27 | 41.25986 | -93.63189 | 6435 ft | 161 kts | 180° |
| 2026-04-27 03:27 | 41.24857 | -93.63105 | 6403 ft | 164 kts | 175° |
| 2026-04-27 03:27 | 41.23757 | -93.62635 | 6352 ft | 172 kts | 155° |
| 2026-04-27 03:28 | 41.22700 | -93.61961 | 6308 ft | 166 kts | 167° |
| 2026-04-27 03:28 | 41.21591 | -93.61577 | 6240 ft | 167 kts | 173° |
| 2026-04-27 03:28 | 41.20415 | -93.61491 | 6098 ft | 167 kts | 184° |
| 2026-04-27 03:28 | 41.19303 | -93.61583 | 6302 ft | 156 kts | 184° |
| 2026-04-27 03:29 | 41.18204 | -93.61792 | 6194 ft | 165 kts | 192° |
| 2026-04-27 03:29 | 41.17078 | -93.62193 | 6082 ft | 166 kts | 191° |
| 2026-04-27 03:29 | 41.15979 | -93.62443 | 6272 ft | 156 kts | 185° |
| 2026-04-27 03:29 | 41.14894 | -93.62498 | 6351 ft | 158 kts | 180° |
| 2026-04-27 03:30 | 41.13787 | -93.62480 | 6336 ft | 160 kts | 185° |
| 2026-04-27 03:30 | 41.12675 | -93.62250 | 6165 ft | 174 kts | 159° |
| 2026-04-27 03:30 | 41.11585 | -93.61509 | 5751 ft | 178 kts | 160° |
| 2026-04-27 03:30 | 41.10473 | -93.60906 | 5831 ft | 165 kts | 162° |
| 2026-04-27 03:31 | 41.09407 | -93.60325 | 5766 ft | 168 kts | 164° |
| 2026-04-27 03:31 | 41.08324 | -93.59822 | 5871 ft | 161 kts | 166° |
| 2026-04-27 03:31 | 41.07284 | -93.59370 | 5924 ft | 162 kts | 171° |
| 2026-04-27 03:31 | 41.06140 | -93.59140 | 5774 ft | 167 kts | 174° |
| 2026-04-27 03:32 | 41.05005 | -93.59166 | 5758 ft | 165 kts | 196° |
| 2026-04-27 03:32 | 41.04090 | -93.60088 | 5863 ft | 173 kts | 225° |
| 2026-04-27 03:32 | 41.03471 | -93.61459 | 5966 ft | 172 kts | 229° |
| 2026-04-27 03:32 | 41.02769 | -93.62703 | 6067 ft | 165 kts | 219° |
| 2026-04-27 03:33 | 41.01919 | -93.63704 | 6171 ft | 163 kts | 213° |
| 2026-04-27 03:33 | 41.01027 | -93.64624 | 6269 ft | 163 kts | 212° |
| 2026-04-27 03:33 | 41.00126 | -93.65536 | 6359 ft | 163 kts | 213° |
| 2026-04-27 03:33 | 40.99228 | -93.66449 | 6454 ft | 163 kts | 213° |
| 2026-04-27 03:34 | 40.98328 | -93.67364 | 6548 ft | 163 kts | 213° |
| 2026-04-27 03:34 | 40.97434 | -93.68274 | 6642 ft | 163 kts | 213° |
| 2026-04-27 03:34 | 40.96537 | -93.69186 | 6740 ft | 162 kts | 213° |
| 2026-04-27 03:34 | 40.95639 | -93.70100 | 6833 ft | 162 kts | 213° |
| 2026-04-27 03:35 | 40.94747 | -93.71006 | 6924 ft | 161 kts | 213° |
| 2026-04-27 03:35 | 40.93853 | -93.71914 | 7021 ft | 162 kts | 214° |
| 2026-04-27 03:35 | 40.92956 | -93.72823 | 7118 ft | 162 kts | 213° |
| 2026-04-27 03:35 | 40.92059 | -93.73730 | 7212 ft | 162 kts | 214° |
| 2026-04-27 03:36 | 40.91164 | -93.74633 | 7312 ft | 162 kts | 214° |
| 2026-04-27 03:36 | 40.90268 | -93.75535 | 7403 ft | 162 kts | 214° |
| 2026-04-27 03:36 | 40.89373 | -93.76434 | 7503 ft | 162 kts | 214° |
| 2026-04-27 03:36 | 40.88476 | -93.77331 | 7603 ft | 162 kts | 214° |
| 2026-04-27 03:37 | 40.87578 | -93.78227 | 7700 ft | 162 kts | 214° |
| 2026-04-27 03:37 | 40.86692 | -93.79109 | 7796 ft | 162 kts | 214° |
| 2026-04-27 03:37 | 40.85781 | -93.80011 | 7801 ft | 165 kts | 214° |
| 2026-04-27 03:37 | 40.84853 | -93.80926 | 7809 ft | 169 kts | 216° |
| 2026-04-27 03:38 | 40.83884 | -93.81878 | 7790 ft | 177 kts | 217° |
| 2026-04-27 03:38 | 40.82887 | -93.82860 | 7793 ft | 180 kts | 216° |
| 2026-04-27 03:38 | 40.81881 | -93.83850 | 7797 ft | 181 kts | 217° |
| 2026-04-27 03:38 | 40.80870 | -93.84844 | 7799 ft | 182 kts | 216° |
| 2026-04-27 03:39 | 40.79856 | -93.85842 | 7796 ft | 182 kts | 217° |
| 2026-04-27 03:39 | 40.78839 | -93.86844 | 7796 ft | 182 kts | 217° |
| 2026-04-27 03:39 | 40.77826 | -93.87841 | 7801 ft | 182 kts | 217° |
| 2026-04-27 03:39 | 40.76810 | -93.88841 | 7799 ft | 183 kts | 217° |
| 2026-04-27 03:40 | 40.75792 | -93.89844 | 7798 ft | 182 kts | 217° |
| 2026-04-27 03:40 | 40.74777 | -93.90843 | 7803 ft | 182 kts | 217° |
| 2026-04-27 03:40 | 40.73759 | -93.91846 | 7801 ft | 183 kts | 217° |
| 2026-04-27 03:40 | 40.72749 | -93.92840 | 7800 ft | 183 kts | 217° |
| 2026-04-27 03:41 | 40.71730 | -93.93843 | 7802 ft | 182 kts | 216° |
| 2026-04-27 03:41 | 40.70725 | -93.94833 | 7904 ft | 178 kts | 217° |
| 2026-04-27 03:41 | 40.69724 | -93.95817 | 7901 ft | 181 kts | 217° |
| 2026-04-27 03:41 | 40.68714 | -93.96813 | 7900 ft | 182 kts | 217° |
| 2026-04-27 03:42 | 40.67700 | -93.97815 | 7898 ft | 182 kts | 217° |
| 2026-04-27 03:42 | 40.66691 | -93.98815 | 7899 ft | 182 kts | 217° |
| 2026-04-27 03:42 | 40.65682 | -93.99820 | 7900 ft | 182 kts | 217° |
| 2026-04-27 03:42 | 40.64670 | -94.00828 | 7898 ft | 182 kts | 217° |
| 2026-04-27 03:43 | 40.63661 | -94.01837 | 7900 ft | 182 kts | 217° |
| 2026-04-27 03:43 | 40.62653 | -94.02852 | 7901 ft | 182 kts | 217° |
| 2026-04-27 03:43 | 40.61643 | -94.03864 | 7899 ft | 182 kts | 217° |
| 2026-04-27 03:43 | 40.60649 | -94.04861 | 7900 ft | 182 kts | 217° |
| 2026-04-27 03:44 | 40.59643 | -94.05871 | 7900 ft | 182 kts | 217° |
| 2026-04-27 03:44 | 40.58633 | -94.06883 | 7899 ft | 182 kts | 217° |
| 2026-04-27 03:44 | 40.57627 | -94.07893 | 7899 ft | 182 kts | 217° |
| 2026-04-27 03:44 | 40.56621 | -94.08901 | 7897 ft | 182 kts | 217° |
| 2026-04-27 03:45 | 40.55612 | -94.09913 | 7897 ft | 182 kts | 218° |
| 2026-04-27 03:45 | 40.54605 | -94.10921 | 7895 ft | 182 kts | 218° |
| 2026-04-27 03:45 | 40.53598 | -94.11931 | 7891 ft | 182 kts | 217° |
| 2026-04-27 03:45 | 40.52587 | -94.12944 | 7890 ft | 182 kts | 218° |
| 2026-04-27 03:46 | 40.51577 | -94.13956 | 7892 ft | 182 kts | 218° |
| 2026-04-27 03:46 | 40.50563 | -94.14972 | 7891 ft | 183 kts | 218° |
| 2026-04-27 03:46 | 40.49565 | -94.15973 | 7890 ft | 183 kts | 217° |
| 2026-04-27 03:46 | 40.48551 | -94.16990 | 7889 ft | 184 kts | 217° |
| 2026-04-27 03:47 | 40.47535 | -94.18008 | 7887 ft | 183 kts | 218° |
| 2026-04-27 03:47 | 40.46524 | -94.19021 | 7886 ft | 183 kts | 218° |
| 2026-04-27 03:47 | 40.45512 | -94.20036 | 7884 ft | 184 kts | 218° |
| 2026-04-27 03:47 | 40.44490 | -94.21062 | 7881 ft | 185 kts | 218° |
| 2026-04-27 03:48 | 40.43466 | -94.22090 | 7882 ft | 185 kts | 219° |
| 2026-04-27 03:48 | 40.42442 | -94.23119 | 7881 ft | 186 kts | 218° |
| 2026-04-27 03:48 | 40.41416 | -94.24149 | 7878 ft | 186 kts | 218° |
| 2026-04-27 03:48 | 40.40391 | -94.25179 | 7880 ft | 186 kts | 219° |
| 2026-04-27 03:49 | 40.39364 | -94.26210 | 7874 ft | 186 kts | 218° |
| 2026-04-27 03:49 | 40.38335 | -94.27243 | 7870 ft | 187 kts | 218° |
| 2026-04-27 03:49 | 40.37304 | -94.28279 | 7869 ft | 187 kts | 218° |
| 2026-04-27 03:49 | 40.36273 | -94.29315 | 7869 ft | 187 kts | 218° |
| 2026-04-27 03:50 | 40.35240 | -94.30352 | 7870 ft | 187 kts | 218° |
| 2026-04-27 03:50 | 40.34209 | -94.31388 | 7870 ft | 187 kts | 218° |
| 2026-04-27 03:50 | 40.33177 | -94.32424 | 7870 ft | 187 kts | 218° |
| 2026-04-27 03:50 | 40.32144 | -94.33460 | 7870 ft | 187 kts | 218° |
| 2026-04-27 03:51 | 40.31112 | -94.34497 | 7869 ft | 187 kts | 218° |
| 2026-04-27 03:51 | 40.30081 | -94.35532 | 7870 ft | 187 kts | 218° |
| 2026-04-27 03:51 | 40.29052 | -94.36568 | 7868 ft | 186 kts | 219° |
| 2026-04-27 03:51 | 40.28043 | -94.37596 | 7868 ft | 186 kts | 219° |
| 2026-04-27 03:52 | 40.27027 | -94.38641 | 7870 ft | 186 kts | 219° |
| 2026-04-27 03:52 | 40.26008 | -94.39694 | 7870 ft | 187 kts | 219° |
| 2026-04-27 03:52 | 40.24987 | -94.40747 | 7870 ft | 187 kts | 219° |
| 2026-04-27 03:52 | 40.23974 | -94.41805 | 7870 ft | 186 kts | 220° |
| 2026-04-27 03:53 | 40.22966 | -94.42868 | 7862 ft | 186 kts | 220° |
| 2026-04-27 03:53 | 40.21956 | -94.43938 | 7860 ft | 186 kts | 220° |
| 2026-04-27 03:53 | 40.20949 | -94.45003 | 7860 ft | 186 kts | 220° |
| 2026-04-27 03:53 | 40.19942 | -94.46069 | 7861 ft | 186 kts | 220° |
| 2026-04-27 03:54 | 40.18932 | -94.47139 | 7859 ft | 187 kts | 220° |
| 2026-04-27 03:54 | 40.17924 | -94.48207 | 7860 ft | 187 kts | 220° |
| 2026-04-27 03:54 | 40.16927 | -94.49265 | 7861 ft | 187 kts | 220° |
| 2026-04-27 03:54 | 40.15918 | -94.50336 | 7851 ft | 187 kts | 220° |
| 2026-04-27 03:55 | 40.14908 | -94.51405 | 7854 ft | 187 kts | 219° |
| 2026-04-27 03:55 | 40.13898 | -94.52468 | 7853 ft | 186 kts | 220° |
| 2026-04-27 03:55 | 40.12896 | -94.53547 | 7849 ft | 186 kts | 221° |
| 2026-04-27 03:55 | 40.11910 | -94.54628 | 7924 ft | 183 kts | 221° |
| 2026-04-27 03:56 | 40.10941 | -94.55688 | 8049 ft | 180 kts | 221° |
| 2026-04-27 03:56 | 40.09979 | -94.56731 | 8176 ft | 179 kts | 221° |
| 2026-04-27 03:56 | 40.09017 | -94.57772 | 8247 ft | 182 kts | 221° |
| 2026-04-27 03:56 | 40.08029 | -94.58843 | 8249 ft | 186 kts | 221° |
| 2026-04-27 03:57 | 40.07047 | -94.59916 | 8249 ft | 183 kts | 221° |
| 2026-04-27 03:57 | 40.06074 | -94.60976 | 8246 ft | 181 kts | 221° |
| 2026-04-27 03:57 | 40.05109 | -94.62027 | 8245 ft | 180 kts | 221° |
| 2026-04-27 03:57 | 40.04148 | -94.63069 | 8243 ft | 179 kts | 221° |
| 2026-04-27 03:58 | 40.03186 | -94.64113 | 8243 ft | 180 kts | 221° |
| 2026-04-27 03:58 | 40.02226 | -94.65155 | 8243 ft | 180 kts | 221° |
| 2026-04-27 03:58 | 40.01265 | -94.66197 | 8244 ft | 180 kts | 221° |
| 2026-04-27 03:58 | 40.00302 | -94.67242 | 8242 ft | 180 kts | 221° |
| 2026-04-27 03:59 | 39.99339 | -94.68287 | 8244 ft | 180 kts | 221° |
| 2026-04-27 03:59 | 39.98385 | -94.69321 | 8252 ft | 180 kts | 221° |
| 2026-04-27 03:59 | 39.97422 | -94.70365 | 8251 ft | 180 kts | 221° |
| 2026-04-27 03:59 | 39.96460 | -94.71408 | 8251 ft | 180 kts | 221° |
| 2026-04-27 04:00 | 39.95498 | -94.72450 | 8251 ft | 179 kts | 221° |
| 2026-04-27 04:00 | 39.94539 | -94.73489 | 8247 ft | 179 kts | 221° |
| 2026-04-27 04:00 | 39.93579 | -94.74529 | 8249 ft | 179 kts | 221° |
| 2026-04-27 04:00 | 39.92621 | -94.75565 | 8249 ft | 179 kts | 221° |
| 2026-04-27 04:01 | 39.91663 | -94.76602 | 8254 ft | 180 kts | 221° |
| 2026-04-27 04:01 | 39.90699 | -94.77644 | 8255 ft | 180 kts | 221° |
| 2026-04-27 04:01 | 39.89738 | -94.78683 | 8256 ft | 180 kts | 221° |
| 2026-04-27 04:01 | 39.88765 | -94.79743 | 8261 ft | 184 kts | 221° |
| 2026-04-27 04:02 | 39.87770 | -94.80821 | 8265 ft | 187 kts | 221° |
| 2026-04-27 04:02 | 39.86768 | -94.81904 | 8270 ft | 187 kts | 221° |
| 2026-04-27 04:02 | 39.85762 | -94.82989 | 8273 ft | 188 kts | 221° |
| 2026-04-27 04:02 | 39.84766 | -94.84060 | 8275 ft | 188 kts | 221° |
| 2026-04-27 04:03 | 39.83744 | -94.85156 | 8273 ft | 188 kts | 221° |
| 2026-04-27 04:03 | 39.82743 | -94.86226 | 8275 ft | 189 kts | 221° |
| 2026-04-27 04:03 | 39.81728 | -94.87310 | 8276 ft | 189 kts | 221° |
| 2026-04-27 04:03 | 39.80711 | -94.88392 | 8275 ft | 189 kts | 221° |
| 2026-04-27 04:04 | 39.79701 | -94.89463 | 8275 ft | 184 kts | 221° |
| 2026-04-27 04:04 | 39.78715 | -94.90504 | 8270 ft | 181 kts | 220° |
| 2026-04-27 04:04 | 39.77740 | -94.91527 | 8268 ft | 179 kts | 221° |
| 2026-04-27 04:04 | 39.76767 | -94.92536 | 8265 ft | 179 kts | 220° |
| 2026-04-27 04:05 | 39.75789 | -94.93535 | 8262 ft | 178 kts | 220° |
| 2026-04-27 04:05 | 39.74810 | -94.94523 | 8262 ft | 178 kts | 219° |
| 2026-04-27 04:05 | 39.73827 | -94.95502 | 8269 ft | 178 kts | 219° |
| 2026-04-27 04:05 | 39.72849 | -94.96466 | 8270 ft | 179 kts | 219° |
| 2026-04-27 04:06 | 39.71850 | -94.97441 | 8268 ft | 181 kts | 219° |
| 2026-04-27 04:06 | 39.70847 | -94.98416 | 8268 ft | 180 kts | 218° |
| 2026-04-27 04:06 | 39.69843 | -94.99386 | 8263 ft | 180 kts | 218° |
| 2026-04-27 04:07 | 39.67826 | -95.01325 | 8255 ft | 180 kts | 218° |
| 2026-04-27 04:07 | 39.66816 | -95.02287 | 8255 ft | 180 kts | 218° |
| 2026-04-27 04:07 | 39.65800 | -95.03245 | 8252 ft | 181 kts | 218° |
| 2026-04-27 04:07 | 39.64781 | -95.04203 | 8250 ft | 181 kts | 218° |
| 2026-04-27 04:08 | 39.63776 | -95.05142 | 8249 ft | 181 kts | 218° |
| 2026-04-27 04:08 | 39.62752 | -95.06093 | 8248 ft | 181 kts | 218° |
| 2026-04-27 04:08 | 39.61731 | -95.07038 | 8246 ft | 181 kts | 217° |
| 2026-04-27 04:08 | 39.60703 | -95.07981 | 8245 ft | 181 kts | 217° |
| 2026-04-27 04:09 | 39.59671 | -95.08907 | 8242 ft | 181 kts | 216° |
| 2026-04-27 04:09 | 39.58632 | -95.09823 | 8239 ft | 181 kts | 216° |
| 2026-04-27 04:09 | 39.57586 | -95.10735 | 8239 ft | 181 kts | 216° |
| 2026-04-27 04:09 | 39.56535 | -95.11637 | 8237 ft | 181 kts | 215° |
| 2026-04-27 04:10 | 39.55480 | -95.12530 | 8238 ft | 181 kts | 215° |
| 2026-04-27 04:10 | 39.54418 | -95.13406 | 8235 ft | 181 kts | 214° |
| 2026-04-27 04:10 | 39.53364 | -95.14258 | 8233 ft | 181 kts | 213° |
| 2026-04-27 04:10 | 39.52289 | -95.15109 | 8232 ft | 181 kts | 213° |
| 2026-04-27 04:11 | 39.51208 | -95.15958 | 8233 ft | 182 kts | 213° |
| 2026-04-27 04:11 | 39.50126 | -95.16800 | 8231 ft | 182 kts | 213° |
| 2026-04-27 04:11 | 39.49036 | -95.17641 | 8229 ft | 182 kts | 213° |
| 2026-04-27 04:11 | 39.47947 | -95.18477 | 8224 ft | 182 kts | 213° |
| 2026-04-27 04:12 | 39.46856 | -95.19310 | 8227 ft | 182 kts | 213° |
| 2026-04-27 04:12 | 39.45766 | -95.20138 | 8220 ft | 182 kts | 212° |
| 2026-04-27 04:12 | 39.44674 | -95.20962 | 8221 ft | 182 kts | 212° |
| 2026-04-27 04:12 | 39.43579 | -95.21782 | 8222 ft | 182 kts | 212° |
| 2026-04-27 04:13 | 39.42481 | -95.22601 | 8220 ft | 183 kts | 212° |
| 2026-04-27 04:13 | 39.41379 | -95.23418 | 8220 ft | 182 kts | 212° |
| 2026-04-27 04:13 | 39.40276 | -95.24232 | 8219 ft | 183 kts | 212° |
| 2026-04-27 04:13 | 39.39169 | -95.25043 | 8220 ft | 183 kts | 212° |
| 2026-04-27 04:14 | 39.38435 | -95.25578 | 8220 ft | 182 kts | 212° |
| 2026-04-27 04:14 | 39.37328 | -95.26382 | 8219 ft | 182 kts | 212° |
| 2026-04-27 04:14 | 39.35859 | -95.27440 | 8220 ft | 182 kts | 212° |
| 2026-04-27 04:14 | 39.35112 | -95.27975 | 8222 ft | 182 kts | 211° |
| 2026-04-27 04:15 | 39.34004 | -95.28765 | 8226 ft | 182 kts | 211° |
| 2026-04-27 04:15 | 39.32891 | -95.29553 | 8227 ft | 182 kts | 211° |
| 2026-04-27 04:15 | 39.31780 | -95.30335 | 8230 ft | 182 kts | 211° |
| 2026-04-27 04:15 | 39.30662 | -95.31118 | 8231 ft | 183 kts | 211° |
| 2026-04-27 04:16 | 39.29544 | -95.31896 | 8233 ft | 183 kts | 211° |
| 2026-04-27 04:16 | 39.28424 | -95.32671 | 8235 ft | 182 kts | 211° |
| 2026-04-27 04:16 | 39.27303 | -95.33441 | 8246 ft | 182 kts | 211° |
| 2026-04-27 04:16 | 39.26185 | -95.34205 | 8241 ft | 181 kts | 211° |
| 2026-04-27 04:17 | 39.25087 | -95.34942 | 8133 ft | 184 kts | 211° |
| 2026-04-27 04:17 | 39.23964 | -95.35758 | 7717 ft | 185 kts | 212° |
| 2026-04-27 04:17 | 39.22833 | -95.36466 | 7541 ft | 179 kts | 200° |
| 2026-04-27 04:17 | 39.21585 | -95.36531 | 7203 ft | 188 kts | 168° |
| 2026-04-27 04:18 | 39.20307 | -95.36178 | 6680 ft | 189 kts | 187° |
| 2026-04-27 04:18 | 39.19071 | -95.36581 | 6388 ft | 183 kts | 202° |
| 2026-04-27 04:18 | 39.17921 | -95.37386 | 5710 ft | 191 kts | 209° |
| 2026-04-27 04:18 | 39.16835 | -95.38219 | 5132 ft | 176 kts | 209° |
| 2026-04-27 04:19 | 39.15812 | -95.39066 | 4464 ft | 174 kts | 211° |
| 2026-04-27 04:19 | 39.14841 | -95.39921 | 4110 ft | 160 kts | 213° |
| 2026-04-27 04:19 | 39.13985 | -95.40758 | 3961 ft | 150 kts | 213° |
| 2026-04-27 04:19 | 39.13203 | -95.41581 | 3897 ft | 143 kts | 218° |
| 2026-04-27 04:20 | 39.12521 | -95.42478 | 3953 ft | 143 kts | 221° |
| 2026-04-27 04:20 | 39.11744 | -95.43478 | 4098 ft | 170 kts | 220° |
| 2026-04-27 04:20 | 39.10874 | -95.44564 | 4243 ft | 178 kts | 220° |
| 2026-04-27 04:20 | 39.09956 | -95.45688 | 4262 ft | 186 kts | 220° |
| 2026-04-27 04:21 | 39.08997 | -95.46835 | 4264 ft | 189 kts | 217° |
| 2026-04-27 04:21 | 39.07942 | -95.47840 | 4265 ft | 188 kts | 212° |
| 2026-04-27 04:21 | 39.06867 | -95.48808 | 4265 ft | 190 kts | 212° |
| 2026-04-27 04:21 | 39.05780 | -95.49785 | 4263 ft | 190 kts | 212° |
| 2026-04-27 04:22 | 39.04699 | -95.50755 | 4266 ft | 190 kts | 212° |
| 2026-04-27 04:22 | 39.03617 | -95.51740 | 4263 ft | 186 kts | 212° |
| 2026-04-27 04:22 | 39.02610 | -95.52658 | 4196 ft | 174 kts | 212° |
| 2026-04-27 04:22 | 39.01632 | -95.53557 | 4068 ft | 172 kts | 212° |
| 2026-04-27 04:23 | 39.00652 | -95.54447 | 3940 ft | 172 kts | 212° |
| 2026-04-27 04:23 | 38.99677 | -95.55339 | 3814 ft | 172 kts | 212° |
| 2026-04-27 04:23 | 38.98721 | -95.56228 | 3688 ft | 170 kts | 212° |
| 2026-04-27 04:23 | 38.98299 | -95.57381 | 3648 ft | 129 kts | 251° |
| 2026-04-27 04:24 | 38.98279 | -95.58481 | 3454 ft | 124 kts | 260° |
| 2026-04-27 04:24 | 38.98306 | -95.59613 | 3268 ft | 125 kts | 259° |
| 2026-04-27 04:24 | 38.98328 | -95.60693 | 3165 ft | 119 kts | 255° |
| 2026-04-27 04:24 | 38.98260 | -95.61756 | 2980 ft | 121 kts | 247° |
| 2026-04-27 04:25 | 38.98048 | -95.62739 | 2831 ft | 107 kts | 230° |
| 2026-04-27 04:25 | 38.97718 | -95.63411 | 2663 ft | 69 kts | 220° |
| 2026-04-27 04:25 | 38.97484 | -95.63903 | 2371 ft | 68 kts | 228° |
| 2026-04-27 04:25 | 38.97207 | -95.64483 | 2140 ft | 77 kts | 216° |
| 2026-04-27 04:26 | 38.96837 | -95.64960 | 2031 ft | 73 kts | 205° |
| 2026-04-27 04:26 | 38.96306 | -95.65238 | 1635 ft | 95 kts | 187° |
| 2026-04-27 04:26 | 38.95684 | -95.65560 | 1253 ft | 93 kts | 214° |
| 2026-04-27 04:26 | 38.95269 | -95.65998 | 1042 ft | 51 kts | 221° |
| 2026-04-27 04:27 | 38.95078 | -95.66211 | 1044 ft | 29 kts | 218° |
| 2026-04-27 04:27 | 38.94946 | -95.66345 | 1046 ft | 20 kts | 218° |
| 2026-04-27 04:27 | 38.94682 | -95.66619 | 1066 ft | 93 kts | 216° |
| 2026-04-27 04:27 | 38.94048 | -95.67282 | 1476 ft | 142 kts | 214° |
| 2026-04-27 04:28 | 38.93151 | -95.67266 | 2025 ft | 143 kts | 146° |
| 2026-04-27 04:28 | 38.92311 | -95.66367 | 2151 ft | 174 kts | 142° |
| 2026-04-27 04:28 | 38.91508 | -95.65154 | 2152 ft | 195 kts | 102° |
| 2026-04-27 04:28 | 38.92129 | -95.63761 | 1997 ft | 168 kts | 40° |
| 2026-04-27 04:29 | 38.93070 | -95.63344 | 1749 ft | 125 kts | 11° |
| 2026-04-27 04:29 | 38.93621 | -95.63997 | 1304 ft | 117 kts | 290° |
| 2026-04-27 04:29 | 38.94087 | -95.64887 | 1034 ft | 130 kts | 317° |
| 2026-04-27 04:29 | 38.94836 | -95.65768 | 1048 ft | 179 kts | 319° |
| 2026-04-27 04:30 | 38.95855 | -95.66991 | 1063 ft | 214 kts | 317° |
| 2026-04-27 04:30 | 38.96949 | -95.67732 | 2056 ft | 140 kts | 30° |
| 2026-04-27 04:30 | 38.97964 | -95.66990 | 2174 ft | 182 kts | 51° |
| 2026-04-27 04:30 | 38.98068 | -95.65682 | 2498 ft | 153 kts | 140° |
| 2026-04-27 04:31 | 38.97091 | -95.65115 | 1896 ft | 137 kts | 165° |
| 2026-04-27 04:31 | 38.96386 | -95.65198 | 1448 ft | 89 kts | 184° |
| 2026-04-27 04:31 | 38.95838 | -95.65422 | 1070 ft | 74 kts | 206° |
| 2026-04-27 04:31 | 38.95434 | -95.65808 | 1046 ft | 75 kts | 221° |
| 2026-04-27 04:32 | 38.95748 | -95.65498 | 1036 ft | 0 kts | 217° |
| 2026-04-27 04:32 | 38.95541 | -95.65702 | 1036 ft | 84 kts | 218° |
| 2026-04-27 04:32 | 38.94949 | -95.66346 | 1137 ft | 132 kts | 216° |
| 2026-04-27 04:33 | 38.94150 | -95.67223 | 1421 ft | 168 kts | 218° |
| 2026-04-27 04:33 | 38.93190 | -95.68178 | 1819 ft | 171 kts | 198° |
| 2026-04-27 04:33 | 38.92184 | -95.67835 | 2436 ft | 164 kts | 142° |
| 2026-04-27 04:33 | 38.91483 | -95.66617 | 2739 ft | 176 kts | 115° |
| 2026-04-27 04:34 | 38.91548 | -95.65200 | 2460 ft | 155 kts | 76° |
| 2026-04-27 04:34 | 38.92268 | -95.64255 | 2123 ft | 148 kts | 33° |
| 2026-04-27 04:34 | 38.93252 | -95.64016 | 1554 ft | 144 kts | 351° |
| 2026-04-27 04:34 | 38.93984 | -95.64773 | 1058 ft | 121 kts | 313° |
| 2026-04-27 04:35 | 38.94505 | -95.65357 | 1039 ft | 82 kts | 315° |
| 2026-04-27 04:35 | 38.94770 | -95.65690 | 1040 ft | 66 kts | 319° |